SBFL/FLN METAR and TAF weather

Enter ICAO airport designator
Station Type Date Time Source
SBFL METAR 2021/02/25 02:20 UTC NOAA

SBFL 250220Z 18004KT 5000 -RA BKN010 BKN020 BKN070 22/21 Q1015


Station Type Date Time Source
SBFL Decoded METAR 2021/02/25 02:20 UTC NOAA

Florianopolis Aeroporto , Brazil (SBFL) 27-40S 048-33W 5M
Feb 24, 2021 - 09:20 PM EST / 2021.02.25 0220 UTC
Wind: from the S (180 degrees) at 5 MPH (4 KT):0
Visibility: 3 mile(s):0
Sky conditions: mostly cloudy
Weather: light rain
Temperature: 71 F (22 C)
Dew Point: 69 F (21 C)
Relative Humidity: 94%
Pressure (altimeter): 29.97 in. Hg (1015 hPa)
ob: SBFL 250220Z 18004KT 5000 -RA BKN010 BKN020 BKN070 22/21 Q1015
cycle: 2

Station Type Date Time Source
SBFL TAF 2021/02/25 00:00 UTC NOAA

TAF SBFL 242100Z 2500/2524 18005KT 8000 SCT020 TN23/2504Z TX32/2516Z
TEMPO 2500/2504 4500 -RA FE0W010 BKN015
BECMG 2513/2515 34009KT
RMK PEA

Example: see airport list